Aérodrome :
LOGIN :

S'inscrire | Disclaimer

   EN    FR    IT 

 










Légende :    VFR   VFR Marginal   IFR   IFR Intensif   IFR Très Intensif
Visi : 
Plafond : 
>= 8 km
>= 3000ft
5 à 8 km
1000 à 3000 ft
1500m à 5 km
500 à 1000 ft
800 à 1500m
200 à 500 ft
< 800m
< 200 ft
Symboles :   Orages  Brouillard  Fortes neiges  Fortes précipitations  Vent > 20 kt
SIGMETs :   Divers  Orages  Givrage  Turbulence  Onde Orograph.  Cendres Volcan.






- Altitude de l'aérodrome : 86 ft


LERT - Rota Navy

DERNIER METAR :
  • 071800Z 00000KT CAVOK 14/11 Q1023 NOSIG

METARs EXPIRÉS :
  • 071700Z VRB01KT CAVOK 16/11 Q1023 NOSIG
  • 071600Z 28007KT 250V320 CAVOK 17/12 Q1022 NOSIG

TAF TAF LERT
Valide du 07 à 18h jusqu'au 08 à 03h UTC


071700Z 0718/0803 VRB02KT CAVOK
PROB30
TEMPO 0801/0803 4000 BR



MET'MAP, la Météo Aéronautique d'un coup d'oeil ! - Copyright ORBIFLY Décembre 2007 - Disclaimer

ORBIFLY MET'MAP TEAM :

Programmation & Développement : Alexandra Zaïnal
Sur une idée originale de : Baudouin d'Aumeries
Assistance à la programmation : Marc-Olivier Méhu
Soutien technique & logistique : Manuel Goepfert

Contact : metmap@orbifly.com




SOURCES & CREDITS :

   NOAA